sensor_id;sensor_type;location;lat;lon;timestamp;pressure;altitude;pressure_sealevel;temperature;humidity
55660;BME280;41534;53.550;9.964;2024-02-23T00:01:27;97581.59;;;22.38;47.09
55660;BME280;41534;53.550;9.964;2024-02-23T00:04:27;97569.34;;;22.36;47.01
55660;BME280;41534;53.550;9.964;2024-02-23T00:07:27;97582.75;;;22.32;47.31
55660;BME280;41534;53.550;9.964;2024-02-23T00:10:27;97599.69;;;22.29;47.11
55660;BME280;41534;53.550;9.964;2024-02-23T00:13:28;97595.59;;;22.26;47.18
55660;BME280;41534;53.550;9.964;2024-02-23T00:16:28;97619.63;;;22.24;47.23
55660;BME280;41534;53.550;9.964;2024-02-23T00:19:30;97627.53;;;22.21;47.03
55660;BME280;41534;53.550;9.964;2024-02-23T00:22:32;97625.38;;;22.18;46.85
55660;BME280;41534;53.550;9.964;2024-02-23T00:25:33;97633.03;;;22.16;47.13
55660;BME280;41534;53.550;9.964;2024-02-23T00:28:33;97637.94;;;22.14;47.26
55660;BME280;41534;53.550;9.964;2024-02-23T00:31:33;97646.41;;;22.12;47.31
55660;BME280;41534;53.550;9.964;2024-02-23T00:34:33;97643.44;;;22.09;47.12
55660;BME280;41534;53.550;9.964;2024-02-23T00:37:34;97632.00;;;22.07;47.21
55660;BME280;41534;53.550;9.964;2024-02-23T00:40:34;97654.91;;;22.06;47.08
55660;BME280;41534;53.550;9.964;2024-02-23T00:43:41;97655.41;;;22.03;46.96
55660;BME280;41534;53.550;9.964;2024-02-23T00:46:41;97676.69;;;22.01;47.23
55660;BME280;41534;53.550;9.964;2024-02-23T00:49:42;97740.78;;;21.98;47.29
55660;BME280;41534;53.550;9.964;2024-02-23T00:52:42;97770.22;;;21.96;47.12
55660;BME280;41534;53.550;9.964;2024-02-23T00:55:42;97763.16;;;21.95;47.04
55660;BME280;41534;53.550;9.964;2024-02-23T00:58:43;97772.69;;;21.92;47.17
55660;BME280;41534;53.550;9.964;2024-02-23T01:01:43;97772.97;;;21.91;47.03
55660;BME280;41534;53.550;9.964;2024-02-23T01:04:43;97807.06;;;21.88;47.26
55660;BME280;41534;53.550;9.964;2024-02-23T01:07:44;97812.78;;;21.87;47.17
55660;BME280;41534;53.550;9.964;2024-02-23T01:10:44;97818.50;;;21.85;47.08
55660;BME280;41534;53.550;9.964;2024-02-23T01:13:44;97812.50;;;21.83;47.24
55660;BME280;41534;53.550;9.964;2024-02-23T01:16:45;97835.41;;;21.82;47.07
55660;BME280;41534;53.550;9.964;2024-02-23T01:19:46;97861.03;;;21.81;47.37
55660;BME280;41534;53.550;9.964;2024-02-23T01:22:46;97865.13;;;21.79;47.20
55660;BME280;41534;53.550;9.964;2024-02-23T01:25:46;97870.03;;;21.77;47.05
55660;BME280;41534;53.550;9.964;2024-02-23T01:28:46;97887.75;;;21.74;47.07
55660;BME280;41534;53.550;9.964;2024-02-23T01:31:47;97889.13;;;21.72;47.21
55660;BME280;41534;53.550;9.964;2024-02-23T01:34:47;97897.81;;;21.68;46.79
55660;BME280;41534;53.550;9.964;2024-02-23T01:37:47;97898.34;;;21.65;46.95
55660;BME280;41534;53.550;9.964;2024-02-23T01:40:47;97917.72;;;21.64;46.99
55660;BME280;41534;53.550;9.964;2024-02-23T01:43:48;97926.44;;;21.61;46.91
55660;BME280;41534;53.550;9.964;2024-02-23T01:46:49;97946.59;;;21.60;46.66
55660;BME280;41534;53.550;9.964;2024-02-23T01:49:50;97947.13;;;21.57;46.80
55660;BME280;41534;53.550;9.964;2024-02-23T01:52:51;97971.38;;;21.58;46.70
55660;BME280;41534;53.550;9.964;2024-02-23T01:55:53;97976.56;;;21.55;46.82
55660;BME280;41534;53.550;9.964;2024-02-23T01:58:55;97985.81;;;21.54;46.91
55660;BME280;41534;53.550;9.964;2024-02-23T02:01:55;97999.72;;;21.52;46.74
55660;BME280;41534;53.550;9.964;2024-02-23T02:04:56;98012.75;;;21.50;46.68
55660;BME280;41534;53.550;9.964;2024-02-23T02:07:56;98037.56;;;21.49;46.67
55660;BME280;41534;53.550;9.964;2024-02-23T02:10:56;98049.53;;;21.48;46.57
55660;BME280;41534;53.550;9.964;2024-02-23T02:13:57;98059.88;;;21.46;46.67
55660;BME280;41534;53.550;9.964;2024-02-23T02:16:57;98080.06;;;21.45;46.62
55660;BME280;41534;53.550;9.964;2024-02-23T02:19:58;98068.59;;;21.43;46.55
55660;BME280;41534;53.550;9.964;2024-02-23T02:22:59;98093.38;;;21.41;46.54
55660;BME280;41534;53.550;9.964;2024-02-23T02:25:59;98107.53;;;21.38;46.29
55660;BME280;41534;53.550;9.964;2024-02-23T02:28:59;98118.72;;;21.36;46.43
55660;BME280;41534;53.550;9.964;2024-02-23T02:32:00;98120.84;;;21.34;46.36
55660;BME280;41534;53.550;9.964;2024-02-23T02:35:00;98120.28;;;21.32;46.29
55660;BME280;41534;53.550;9.964;2024-02-23T02:38:00;98123.28;;;21.31;46.28
55660;BME280;41534;53.550;9.964;2024-02-23T02:41:01;98139.91;;;21.29;46.27
55660;BME280;41534;53.550;9.964;2024-02-23T02:44:01;98150.22;;;21.27;46.14
55660;BME280;41534;53.550;9.964;2024-02-23T02:47:01;98148.59;;;21.26;46.25
55660;BME280;41534;53.550;9.964;2024-02-23T02:50:02;98158.94;;;21.24;46.11
55660;BME280;41534;53.550;9.964;2024-02-23T02:53:02;98168.16;;;21.23;46.48
55660;BME280;41534;53.550;9.964;2024-02-23T02:56:06;98173.06;;;21.21;46.25
55660;BME280;41534;53.550;9.964;2024-02-23T02:59:06;98192.38;;;21.20;46.09
55660;BME280;41534;53.550;9.964;2024-02-23T03:02:06;98198.09;;;21.18;45.96
55660;BME280;41534;53.550;9.964;2024-02-23T03:05:07;98210.03;;;21.17;46.23
55660;BME280;41534;53.550;9.964;2024-02-23T03:08:07;98222.00;;;21.16;46.13
55660;BME280;41534;53.550;9.964;2024-02-23T03:11:07;98226.91;;;21.14;46.15
55660;BME280;41534;53.550;9.964;2024-02-23T03:14:08;98219.25;;;21.11;46.21
55660;BME280;41534;53.550;9.964;2024-02-23T03:17:08;98233.69;;;21.12;46.28
55660;BME280;41534;53.550;9.964;2024-02-23T03:20:10;98239.41;;;21.10;46.37
55660;BME280;41534;53.550;9.964;2024-02-23T03:23:11;98247.81;;;21.08;46.22
55660;BME280;41534;53.550;9.964;2024-02-23T03:26:11;98260.63;;;21.08;46.33
55660;BME280;41534;53.550;9.964;2024-02-23T03:29:11;98261.72;;;21.07;46.30
55660;BME280;41534;53.550;9.964;2024-02-23T03:32:12;98282.09;;;21.04;46.18
55660;BME280;41534;53.550;9.964;2024-02-23T03:35:12;98292.69;;;21.01;45.26
55660;BME280;41534;53.550;9.964;2024-02-23T03:38:12;98288.25;;;20.95;44.52
55660;BME280;41534;53.550;9.964;2024-02-23T03:41:13;98289.56;;;20.87;44.33
55660;BME280;41534;53.550;9.964;2024-02-23T03:44:13;98288.66;;;20.82;43.97
55660;BME280;41534;53.550;9.964;2024-02-23T03:47:13;98299.25;;;20.78;44.02
55660;BME280;41534;53.550;9.964;2024-02-23T03:50:14;98307.34;;;20.73;43.70
55660;BME280;41534;53.550;9.964;2024-02-23T03:53:14;98316.88;;;20.70;43.52
55660;BME280;41534;53.550;9.964;2024-02-23T03:56:14;98317.38;;;20.67;43.50
55660;BME280;41534;53.550;9.964;2024-02-23T03:59:15;98325.19;;;20.64;43.41
55660;BME280;41534;53.550;9.964;2024-02-23T04:02:15;98331.16;;;20.61;43.05
55660;BME280;41534;53.550;9.964;2024-02-23T04:05:15;98335.22;;;20.58;43.05
55660;BME280;41534;53.550;9.964;2024-02-23T04:08:16;98345.53;;;20.56;42.95
55660;BME280;41534;53.550;9.964;2024-02-23T04:11:16;98342.50;;;20.53;42.75
55660;BME280;41534;53.550;9.964;2024-02-23T04:14:16;98346.53;;;20.50;42.39
55660;BME280;41534;53.550;9.964;2024-02-23T04:17:16;98365.03;;;20.48;42.58
55660;BME280;41534;53.550;9.964;2024-02-23T04:20:17;98356.25;;;20.46;42.62
55660;BME280;41534;53.550;9.964;2024-02-23T04:23:17;98366.59;;;20.44;42.42
55660;BME280;41534;53.550;9.964;2024-02-23T04:26:17;98383.41;;;20.41;42.55
55660;BME280;41534;53.550;9.964;2024-02-23T04:29:17;98388.25;;;20.39;42.26
55660;BME280;41534;53.550;9.964;2024-02-23T04:32:18;98387.69;;;20.37;42.13
55660;BME280;41534;53.550;9.964;2024-02-23T04:35:18;98381.94;;;20.33;41.85
55660;BME280;41534;53.550;9.964;2024-02-23T04:38:18;98401.22;;;20.32;42.11
55660;BME280;41534;53.550;9.964;2024-02-23T04:41:20;98406.06;;;20.30;42.30
55660;BME280;41534;53.550;9.964;2024-02-23T04:44:20;98404.41;;;20.29;41.92
55660;BME280;41534;53.550;9.964;2024-02-23T04:47:20;98415.53;;;20.27;41.83
55660;BME280;41534;53.550;9.964;2024-02-23T04:50:21;98413.06;;;20.26;41.73
55660;BME280;41534;53.550;9.964;2024-02-23T04:53:21;98427.19;;;20.23;41.82
55660;BME280;41534;53.550;9.964;2024-02-23T04:56:21;98430.16;;;20.21;41.70
55660;BME280;41534;53.550;9.964;2024-02-23T04:59:22;98436.66;;;20.20;41.70
55660;BME280;41534;53.550;9.964;2024-02-23T05:02:22;98439.63;;;20.18;41.51
55660;BME280;41534;53.550;9.964;2024-02-23T05:05:22;98445.56;;;20.15;41.59
55660;BME280;41534;53.550;9.964;2024-02-23T05:08:22;98453.72;;;20.15;41.64
55660;BME280;41534;53.550;9.964;2024-02-23T05:11:23;98454.19;;;20.12;41.53
55660;BME280;41534;53.550;9.964;2024-02-23T05:14:23;98451.72;;;20.11;41.61
55660;BME280;41534;53.550;9.964;2024-02-23T05:17:23;98454.69;;;20.09;41.58
55660;BME280;41534;53.550;9.964;2024-02-23T05:20:23;98446.78;;;20.08;41.47
55660;BME280;41534;53.550;9.964;2024-02-23T05:23:24;98456.00;;;20.07;41.47
55660;BME280;41534;53.550;9.964;2024-02-23T05:26:24;98462.78;;;20.04;41.46
55660;BME280;41534;53.550;9.964;2024-02-23T05:29:24;98467.63;;;20.02;41.35
55660;BME280;41534;53.550;9.964;2024-02-23T05:32:25;98479.84;;;20.00;41.40
55660;BME280;41534;53.550;9.964;2024-02-23T05:35:25;98484.44;;;19.99;41.14
55660;BME280;41534;53.550;9.964;2024-02-23T05:38:25;98491.22;;;19.97;41.14
55660;BME280;41534;53.550;9.964;2024-02-23T05:41:25;98499.56;;;19.95;41.05
55660;BME280;41534;53.550;9.964;2024-02-23T05:44:26;98506.91;;;19.95;41.07
55660;BME280;41534;53.550;9.964;2024-02-23T05:47:26;98497.34;;;19.92;41.09
55660;BME280;41534;53.550;9.964;2024-02-23T05:50:26;98485.91;;;19.90;40.98
55660;BME280;41534;53.550;9.964;2024-02-23T05:53:27;98500.81;;;19.87;40.85
55660;BME280;41534;53.550;9.964;2024-02-23T05:56:27;98502.72;;;19.87;40.97
55660;BME280;41534;53.550;9.964;2024-02-23T05:59:27;98511.94;;;19.86;40.78
55660;BME280;41534;53.550;9.964;2024-02-23T06:02:27;98533.09;;;19.84;40.85
55660;BME280;41534;53.550;9.964;2024-02-23T06:05:28;98530.63;;;19.82;40.81
55660;BME280;41534;53.550;9.964;2024-02-23T06:08:28;98555.34;;;19.81;40.73
55660;BME280;41534;53.550;9.964;2024-02-23T06:11:28;98535.72;;;19.79;40.67
55660;BME280;41534;53.550;9.964;2024-02-23T06:14:28;98561.22;;;19.78;40.59
55660;BME280;41534;53.550;9.964;2024-02-23T06:17:29;98552.50;;;19.76;40.63
55660;BME280;41534;53.550;9.964;2024-02-23T06:20:29;98576.94;;;19.76;40.53
55660;BME280;41534;53.550;9.964;2024-02-23T06:23:29;98570.13;;;19.73;40.50
55660;BME280;41534;53.550;9.964;2024-02-23T06:26:30;98587.50;;;19.72;40.45
55660;BME280;41534;53.550;9.964;2024-02-23T06:29:31;98582.31;;;19.71;40.50
55660;BME280;41534;53.550;9.964;2024-02-23T06:32:31;98602.38;;;19.70;40.42
55660;BME280;41534;53.550;9.964;2024-02-23T06:35:32;98593.66;;;19.68;40.34
55660;BME280;41534;53.550;9.964;2024-02-23T06:38:32;98598.50;;;19.66;40.22
55660;BME280;41534;53.550;9.964;2024-02-23T06:41:32;98604.19;;;19.64;40.33
55660;BME280;41534;53.550;9.964;2024-02-23T06:44:32;98624.28;;;19.63;40.23
55660;BME280;41534;53.550;9.964;2024-02-23T06:47:33;98615.28;;;19.63;40.16
55660;BME280;41534;53.550;9.964;2024-02-23T06:50:34;98625.56;;;19.61;40.21
55660;BME280;41534;53.550;9.964;2024-02-23T06:53:35;98631.22;;;19.59;40.20
55660;BME280;41534;53.550;9.964;2024-02-23T06:56:35;98636.66;;;19.59;40.36
55660;BME280;41534;53.550;9.964;2024-02-23T06:59:35;98642.34;;;19.57;40.20
55660;BME280;41534;53.550;9.964;2024-02-23T07:02:36;98653.19;;;19.57;40.33
55660;BME280;41534;53.550;9.964;2024-02-23T07:05:36;98657.00;;;19.56;40.26
55660;BME280;41534;53.550;9.964;2024-02-23T07:08:36;98668.91;;;19.55;39.98
55660;BME280;41534;53.550;9.964;2024-02-23T07:11:37;98674.59;;;19.54;40.28
55660;BME280;41534;53.550;9.964;2024-02-23T07:14:37;98687.13;;;19.55;40.12
55660;BME280;41534;53.550;9.964;2024-02-23T07:17:38;98685.47;;;19.54;39.98
55660;BME280;41534;53.550;9.964;2024-02-23T07:20:38;98679.16;;;19.53;39.99
55660;BME280;41534;53.550;9.964;2024-02-23T07:23:38;98688.38;;;19.52;40.06
55660;BME280;41534;53.550;9.964;2024-02-23T07:26:39;98703.03;;;19.51;39.92
55660;BME280;41534;53.550;9.964;2024-02-23T07:29:39;98706.00;;;19.50;39.94
55660;BME280;41534;53.550;9.964;2024-02-23T07:32:39;98706.00;;;19.50;39.91
55660;BME280;41534;53.550;9.964;2024-02-23T07:35:39;98698.09;;;19.48;39.85
55660;BME280;41534;53.550;9.964;2024-02-23T07:38:40;98701.88;;;19.47;39.77
55660;BME280;41534;53.550;9.964;2024-02-23T07:41:40;98705.66;;;19.46;40.01
55660;BME280;41534;53.550;9.964;2024-02-23T07:44:40;98703.16;;;19.45;40.04
55660;BME280;41534;53.550;9.964;2024-02-23T07:47:40;98714.88;;;19.45;40.26
55660;BME280;41534;53.550;9.964;2024-02-23T07:50:41;98714.03;;;19.45;40.06
55660;BME280;41534;53.550;9.964;2024-02-23T07:53:41;98718.66;;;19.44;39.88
55660;BME280;41534;53.550;9.964;2024-02-23T07:56:41;98723.00;;;19.45;39.95
55660;BME280;41534;53.550;9.964;2024-02-23T07:59:42;98731.16;;;19.45;40.01
55660;BME280;41534;53.550;9.964;2024-02-23T08:02:42;98731.97;;;19.46;39.87
55660;BME280;41534;53.550;9.964;2024-02-23T08:05:42;98737.19;;;19.47;39.82
55660;BME280;41534;53.550;9.964;2024-02-23T08:08:43;98736.94;;;19.49;39.73
55660;BME280;41534;53.550;9.964;2024-02-23T08:11:43;98741.31;;;19.50;39.93
55660;BME280;41534;53.550;9.964;2024-02-23T08:14:43;98746.50;;;19.51;39.79
55660;BME280;41534;53.550;9.964;2024-02-23T08:17:44;98740.84;;;19.53;39.82
55660;BME280;41534;53.550;9.964;2024-02-23T08:20:44;98746.25;;;19.53;39.69
55660;BME280;41534;53.550;9.964;2024-02-23T08:23:44;98751.50;;;19.54;39.68
55660;BME280;41534;53.550;9.964;2024-02-23T08:26:45;98753.13;;;19.55;39.80
55660;BME280;41534;53.550;9.964;2024-02-23T08:29:45;98760.22;;;19.56;39.64
55660;BME280;41534;53.550;9.964;2024-02-23T08:32:45;98769.19;;;19.57;39.80
55660;BME280;41534;53.550;9.964;2024-02-23T08:35:46;98783.38;;;19.59;39.80
55660;BME280;41534;53.550;9.964;2024-02-23T08:38:46;98775.22;;;19.59;39.72
55660;BME280;41534;53.550;9.964;2024-02-23T08:41:46;98789.63;;;19.60;39.85
55660;BME280;41534;53.550;9.964;2024-02-23T08:44:47;98786.09;;;19.59;39.59
55660;BME280;41534;53.550;9.964;2024-02-23T08:47:47;98794.00;;;19.61;39.81
55660;BME280;41534;53.550;9.964;2024-02-23T08:50:47;98804.03;;;19.60;39.80
55660;BME280;41534;53.550;9.964;2024-02-23T08:53:48;98804.88;;;19.61;39.71
55660;BME280;41534;53.550;9.964;2024-02-23T08:56:48;98805.94;;;19.60;39.42
55660;BME280;41534;53.550;9.964;2024-02-23T08:59:49;98812.19;;;19.60;39.66
55660;BME280;41534;53.550;9.964;2024-02-23T09:02:50;98805.25;;;19.64;40.62
55660;BME280;41534;53.550;9.964;2024-02-23T09:05:50;98826.88;;;19.71;40.59
55660;BME280;41534;53.550;9.964;2024-02-23T09:08:50;98833.25;;;19.76;40.50
55660;BME280;41534;53.550;9.964;2024-02-23T09:11:51;98833.63;;;19.80;40.68
55660;BME280;41534;53.550;9.964;2024-02-23T09:14:51;98837.28;;;19.85;41.22
55660;BME280;41534;53.550;9.964;2024-02-23T09:17:51;98842.00;;;19.90;41.29
55660;BME280;41534;53.550;9.964;2024-02-23T09:20:52;98853.59;;;19.97;41.63
55660;BME280;41534;53.550;9.964;2024-02-23T09:23:52;98857.94;;;20.10;41.76
55660;BME280;41534;53.550;9.964;2024-02-23T09:26:52;98852.84;;;20.25;41.79
55660;BME280;41534;53.550;9.964;2024-02-23T09:29:53;98854.63;;;20.43;41.77
55660;BME280;41534;53.550;9.964;2024-02-23T09:32:53;98862.88;;;20.60;41.78
55660;BME280;41534;53.550;9.964;2024-02-23T09:35:53;98868.63;;;20.75;41.84
55660;BME280;41534;53.550;9.964;2024-02-23T09:38:54;98867.53;;;20.88;41.84
55660;BME280;41534;53.550;9.964;2024-02-23T09:41:54;98874.09;;;21.03;41.79
55660;BME280;41534;53.550;9.964;2024-02-23T09:44:58;98888.22;;;21.17;41.94
55660;BME280;41534;53.550;9.964;2024-02-23T09:48:00;98888.22;;;21.29;41.87
55660;BME280;41534;53.550;9.964;2024-02-23T09:51:01;98895.25;;;21.42;41.88
55660;BME280;41534;53.550;9.964;2024-02-23T09:54:01;98897.94;;;21.53;41.94
55660;BME280;41534;53.550;9.964;2024-02-23T09:57:08;98906.25;;;21.63;41.94
55660;BME280;41534;53.550;9.964;2024-02-23T10:00:09;98918.44;;;21.73;41.73
55660;BME280;41534;53.550;9.964;2024-02-23T10:03:10;98924.28;;;21.81;41.86
55660;BME280;41534;53.550;9.964;2024-02-23T10:06:10;98916.53;;;21.90;42.04
55660;BME280;41534;53.550;9.964;2024-02-23T10:09:10;98941.47;;;21.98;41.92
55660;BME280;41534;53.550;9.964;2024-02-23T10:12:11;98938.38;;;22.07;41.90
55660;BME280;41534;53.550;9.964;2024-02-23T10:15:11;98939.59;;;22.16;41.64
55660;BME280;41534;53.550;9.964;2024-02-23T10:18:11;98954.75;;;22.23;41.73
55660;BME280;41534;53.550;9.964;2024-02-23T10:21:11;98955.13;;;22.32;41.70
55660;BME280;41534;53.550;9.964;2024-02-23T10:24:12;98948.19;;;22.41;41.64
55660;BME280;41534;53.550;9.964;2024-02-23T10:27:12;98957.84;;;22.49;41.53
55660;BME280;41534;53.550;9.964;2024-02-23T10:30:13;98961.72;;;22.53;41.70
55660;BME280;41534;53.550;9.964;2024-02-23T10:33:14;98965.84;;;22.55;41.72
55660;BME280;41534;53.550;9.964;2024-02-23T10:36:15;98971.09;;;22.57;41.81
55660;BME280;41534;53.550;9.964;2024-02-23T10:39:17;98970.25;;;22.56;41.55
55660;BME280;41534;53.550;9.964;2024-02-23T10:42:20;98973.22;;;22.55;41.71
55660;BME280;41534;53.550;9.964;2024-02-23T10:45:23;98972.91;;;22.51;41.40
55660;BME280;41534;53.550;9.964;2024-02-23T10:48:24;98973.72;;;22.52;41.45
55660;BME280;41534;53.550;9.964;2024-02-23T10:51:25;98979.94;;;22.47;41.41
55660;BME280;41534;53.550;9.964;2024-02-23T10:54:26;98973.84;;;22.40;41.12
55660;BME280;41534;53.550;9.964;2024-02-23T10:57:27;98998.88;;;22.37;41.16
55660;BME280;41534;53.550;9.964;2024-02-23T11:00:27;98980.53;;;22.33;41.27
55660;BME280;41534;53.550;9.964;2024-02-23T11:03:31;99000.72;;;22.32;41.41
55660;BME280;41534;53.550;9.964;2024-02-23T11:06:33;99006.75;;;22.34;41.74
55660;BME280;41534;53.550;9.964;2024-02-23T11:09:35;98997.22;;;22.36;41.67
55660;BME280;41534;53.550;9.964;2024-02-23T11:12:35;98991.63;;;22.43;41.53
55660;BME280;41534;53.550;9.964;2024-02-23T11:15:41;98993.91;;;22.51;41.51
55660;BME280;41534;53.550;9.964;2024-02-23T11:18:42;98995.06;;;22.55;41.79
55660;BME280;41534;53.550;9.964;2024-02-23T11:21:42;98997.06;;;22.60;41.51
55660;BME280;41534;53.550;9.964;2024-02-23T11:24:43;98987.53;;;22.62;41.57
55660;BME280;41534;53.550;9.964;2024-02-23T11:27:44;98993.56;;;22.64;41.71
55660;BME280;41534;53.550;9.964;2024-02-23T11:30:45;98994.38;;;22.65;41.80
55660;BME280;41534;53.550;9.964;2024-02-23T11:33:53;98996.28;;;22.64;41.80
55660;BME280;41534;53.550;9.964;2024-02-23T11:36:53;98983.97;;;22.62;41.40
55660;BME280;41534;53.550;9.964;2024-02-23T11:39:54;98986.97;;;22.60;41.33
55660;BME280;41534;53.550;9.964;2024-02-23T11:42:55;98988.28;;;22.58;41.56
55660;BME280;41534;53.550;9.964;2024-02-23T11:45:55;98989.59;;;22.55;41.24
55660;BME280;41534;53.550;9.964;2024-02-23T11:48:55;98991.75;;;22.53;41.22
55660;BME280;41534;53.550;9.964;2024-02-23T11:51:56;98992.00;;;22.51;41.23
55660;BME280;41534;53.550;9.964;2024-02-23T11:54:57;98990.84;;;22.47;41.46
55660;BME280;41534;53.550;9.964;2024-02-23T11:57:57;98981.53;;;22.43;41.57
55660;BME280;41534;53.550;9.964;2024-02-23T12:00:57;98992.94;;;22.40;41.80
55660;BME280;41534;53.550;9.964;2024-02-23T12:03:57;98988.22;;;22.36;41.60
55660;BME280;41534;53.550;9.964;2024-02-23T12:06:58;98982.94;;;22.29;41.79
55660;BME280;41534;53.550;9.964;2024-02-23T12:09:58;98978.22;;;22.24;41.75
55660;BME280;41534;53.550;9.964;2024-02-23T12:12:59;98985.84;;;22.22;41.99
55660;BME280;41534;53.550;9.964;2024-02-23T12:16:00;98980.13;;;22.24;42.03
55660;BME280;41534;53.550;9.964;2024-02-23T12:19:01;98983.44;;;22.26;42.24
55660;BME280;41534;53.550;9.964;2024-02-23T12:22:01;98987.31;;;22.30;42.33
55660;BME280;41534;53.550;9.964;2024-02-23T12:25:02;98983.81;;;22.35;42.28
55660;BME280;41534;53.550;9.964;2024-02-23T12:28:02;98984.75;;;22.40;42.21
55660;BME280;41534;53.550;9.964;2024-02-23T12:31:03;98990.28;;;22.45;42.10
55660;BME280;41534;53.550;9.964;2024-02-23T12:34:04;98997.97;;;22.48;42.13
55660;BME280;41534;53.550;9.964;2024-02-23T12:37:04;98993.06;;;22.50;42.17
55660;BME280;41534;53.550;9.964;2024-02-23T12:40:05;98988.19;;;22.52;42.03
55660;BME280;41534;53.550;9.964;2024-02-23T12:43:06;98988.19;;;22.52;41.89
55660;BME280;41534;53.550;9.964;2024-02-23T12:46:06;98987.13;;;22.53;41.84
55660;BME280;41534;53.550;9.964;2024-02-23T12:49:06;98987.13;;;22.53;42.16
55660;BME280;41534;53.550;9.964;2024-02-23T12:52:07;98983.56;;;22.53;41.88
55660;BME280;41534;53.550;9.964;2024-02-23T12:55:07;98992.56;;;22.53;41.77
55660;BME280;41534;53.550;9.964;2024-02-23T12:58:08;98992.00;;;22.51;41.93
55660;BME280;41534;53.550;9.964;2024-02-23T13:01:08;98994.16;;;22.49;42.04
55660;BME280;41534;53.550;9.964;2024-02-23T13:04:09;98992.56;;;22.53;42.34
55660;BME280;41534;53.550;9.964;2024-02-23T13:07:09;99010.97;;;22.58;42.55
55660;BME280;41534;53.550;9.964;2024-02-23T13:10:09;99007.47;;;22.63;42.51
55660;BME280;41534;53.550;9.964;2024-02-23T13:13:10;99004.22;;;22.66;42.85
55660;BME280;41534;53.550;9.964;2024-02-23T13:16:10;99009.19;;;22.69;42.69
55660;BME280;41534;53.550;9.964;2024-02-23T13:19:10;99010.59;;;22.71;42.89
55660;BME280;41534;53.550;9.964;2024-02-23T13:22:11;99013.66;;;22.75;42.79
55660;BME280;41534;53.550;9.964;2024-02-23T13:25:11;99016.41;;;22.75;42.70
55660;BME280;41534;53.550;9.964;2024-02-23T13:28:11;99024.81;;;22.73;42.69
55660;BME280;41534;53.550;9.964;2024-02-23T13:31:12;99022.34;;;22.72;42.70
55660;BME280;41534;53.550;9.964;2024-02-23T13:34:12;99021.75;;;22.70;42.67
55660;BME280;41534;53.550;9.964;2024-02-23T13:37:12;99023.09;;;22.67;42.71
55660;BME280;41534;53.550;9.964;2024-02-23T13:40:13;99030.97;;;22.64;42.65
55660;BME280;41534;53.550;9.964;2024-02-23T13:43:13;99027.91;;;22.60;42.45
55660;BME280;41534;53.550;9.964;2024-02-23T13:46:13;99032.19;;;22.56;42.59
55660;BME280;41534;53.550;9.964;2024-02-23T13:49:13;99032.94;;;22.51;42.81
55660;BME280;41534;53.550;9.964;2024-02-23T13:52:14;99038.09;;;22.48;42.81
55660;BME280;41534;53.550;9.964;2024-02-23T13:55:14;99037.75;;;22.44;42.81
55660;BME280;41534;53.550;9.964;2024-02-23T13:58:14;99048.34;;;22.41;42.94
55660;BME280;41534;53.550;9.964;2024-02-23T14:01:15;99037.91;;;22.38;42.72
55660;BME280;41534;53.550;9.964;2024-02-23T14:04:15;99046.91;;;22.38;42.91
55660;BME280;41534;53.550;9.964;2024-02-23T14:07:16;99050.25;;;22.40;42.86
55660;BME280;41534;53.550;9.964;2024-02-23T14:10:16;99042.41;;;22.44;42.92
55660;BME280;41534;53.550;9.964;2024-02-23T14:13:16;99044.38;;;22.48;42.84
55660;BME280;41534;53.550;9.964;2024-02-23T14:16:17;99045.53;;;22.52;42.90
55660;BME280;41534;53.550;9.964;2024-02-23T14:19:17;99038.50;;;22.56;42.58
55660;BME280;41534;53.550;9.964;2024-02-23T14:22:17;99038.00;;;22.60;42.76
55660;BME280;41534;53.550;9.964;2024-02-23T14:25:18;99036.41;;;22.64;42.80
55660;BME280;41534;53.550;9.964;2024-02-23T14:28:18;99040.31;;;22.68;42.96
55660;BME280;41534;53.550;9.964;2024-02-23T14:31:18;99038.97;;;22.70;42.58
55660;BME280;41534;53.550;9.964;2024-02-23T14:34:19;99038.72;;;22.72;42.55
55660;BME280;41534;53.550;9.964;2024-02-23T14:37:19;99019.59;;;22.72;42.67
55660;BME280;41534;53.550;9.964;2024-02-23T14:40:19;99031.59;;;22.71;42.58
55660;BME280;41534;53.550;9.964;2024-02-23T14:43:19;99024.75;;;22.68;42.51
55660;BME280;41534;53.550;9.964;2024-02-23T14:46:20;99037.56;;;22.68;42.57
55660;BME280;41534;53.550;9.964;2024-02-23T14:49:20;99032.63;;;22.65;42.55
55660;BME280;41534;53.550;9.964;2024-02-23T14:52:20;99042.38;;;22.61;42.55
55660;BME280;41534;53.550;9.964;2024-02-23T14:55:21;99038.50;;;22.56;42.57
55660;BME280;41534;53.550;9.964;2024-02-23T14:58:21;99037.91;;;22.54;42.57
55660;BME280;41534;53.550;9.964;2024-02-23T15:01:21;99047.69;;;22.50;42.76
55660;BME280;41534;53.550;9.964;2024-02-23T15:04:21;99040.00;;;22.47;42.65
55660;BME280;41534;53.550;9.964;2024-02-23T15:07:22;99044.88;;;22.45;42.99
55660;BME280;41534;53.550;9.964;2024-02-23T15:10:22;99052.47;;;22.43;42.93
55660;BME280;41534;53.550;9.964;2024-02-23T15:13:22;99050.47;;;22.39;42.67
55660;BME280;41534;53.550;9.964;2024-02-23T15:16:25;99048.59;;;22.39;43.01
55660;BME280;41534;53.550;9.964;2024-02-23T15:19:25;99057.63;;;22.40;42.90
55660;BME280;41534;53.550;9.964;2024-02-23T15:22:26;99054.13;;;22.44;42.88
55660;BME280;41534;53.550;9.964;2024-02-23T15:25:26;99056.13;;;22.49;43.00
55660;BME280;41534;53.550;9.964;2024-02-23T15:28:26;99053.22;;;22.55;42.93
55660;BME280;41534;53.550;9.964;2024-02-23T15:31:26;99052.47;;;22.60;42.86
55660;BME280;41534;53.550;9.964;2024-02-23T15:34:27;99057.19;;;22.65;42.78
55660;BME280;41534;53.550;9.964;2024-02-23T15:37:27;99061.31;;;22.67;42.67
55660;BME280;41534;53.550;9.964;2024-02-23T15:40:27;99054.78;;;22.68;42.65
55660;BME280;41534;53.550;9.964;2024-02-23T15:43:28;99073.63;;;22.70;42.71
55660;BME280;41534;53.550;9.964;2024-02-23T15:46:28;99059.16;;;22.69;42.76
55660;BME280;41534;53.550;9.964;2024-02-23T15:49:28;99065.69;;;22.68;42.55
55660;BME280;41534;53.550;9.964;2024-02-23T15:52:28;99062.41;;;22.66;42.54
55660;BME280;41534;53.550;9.964;2024-02-23T15:55:29;99072.75;;;22.64;42.76